sensor_id;sensor_type;location;lat;lon;timestamp;P1;durP1;ratioP1;P2;durP2;ratioP2
40511;SDS011;26213;52.446;20.706;2023-04-24T00:01:46;13.73;;;9.73;;
40511;SDS011;26213;52.446;20.706;2023-04-24T00:04:12;15.80;;;9.73;;
40511;SDS011;26213;52.446;20.706;2023-04-24T00:06:41;12.73;;;8.32;;
40511;SDS011;26213;52.446;20.706;2023-04-24T00:09:08;16.75;;;9.40;;
40511;SDS011;26213;52.446;20.706;2023-04-24T00:11:35;15.38;;;10.20;;
40511;SDS011;26213;52.446;20.706;2023-04-24T00:14:00;16.00;;;11.00;;
40511;SDS011;26213;52.446;20.706;2023-04-24T00:16:26;15.93;;;10.35;;
40511;SDS011;26213;52.446;20.706;2023-04-24T00:18:51;18.20;;;10.43;;
40511;SDS011;26213;52.446;20.706;2023-04-24T00:21:17;16.88;;;10.45;;
40511;SDS011;26213;52.446;20.706;2023-04-24T00:23:43;16.45;;;10.65;;
40511;SDS011;26213;52.446;20.706;2023-04-24T00:26:09;14.85;;;9.60;;
40511;SDS011;26213;52.446;20.706;2023-04-24T00:28:35;15.73;;;9.98;;
40511;SDS011;26213;52.446;20.706;2023-04-24T00:31:00;15.07;;;10.80;;
40511;SDS011;26213;52.446;20.706;2023-04-24T00:33:26;16.05;;;9.80;;
40511;SDS011;26213;52.446;20.706;2023-04-24T00:35:51;17.70;;;11.00;;
40511;SDS011;26213;52.446;20.706;2023-04-24T00:38:17;17.00;;;11.05;;
40511;SDS011;26213;52.446;20.706;2023-04-24T00:40:42;20.38;;;12.45;;
40511;SDS011;26213;52.446;20.706;2023-04-24T00:43:08;15.82;;;9.88;;
40511;SDS011;26213;52.446;20.706;2023-04-24T00:45:33;15.68;;;10.02;;
40511;SDS011;26213;52.446;20.706;2023-04-24T00:47:58;17.40;;;10.50;;
40511;SDS011;26213;52.446;20.706;2023-04-24T00:50:25;16.60;;;10.10;;
40511;SDS011;26213;52.446;20.706;2023-04-24T00:52:51;18.50;;;10.10;;
40511;SDS011;26213;52.446;20.706;2023-04-24T00:55:17;18.25;;;10.77;;
40511;SDS011;26213;52.446;20.706;2023-04-24T00:57:43;15.20;;;10.98;;
40511;SDS011;26213;52.446;20.706;2023-04-24T01:00:09;14.98;;;8.43;;
40511;SDS011;26213;52.446;20.706;2023-04-24T01:02:36;11.93;;;7.80;;
40511;SDS011;26213;52.446;20.706;2023-04-24T01:05:05;17.73;;;8.35;;
40511;SDS011;26213;52.446;20.706;2023-04-24T01:07:32;14.65;;;9.82;;
40511;SDS011;26213;52.446;20.706;2023-04-24T01:09:57;15.43;;;10.18;;
40511;SDS011;26213;52.446;20.706;2023-04-24T01:12:23;13.98;;;10.10;;
40511;SDS011;26213;52.446;20.706;2023-04-24T01:14:48;16.48;;;10.35;;
40511;SDS011;26213;52.446;20.706;2023-04-24T01:17:14;17.13;;;10.88;;
40511;SDS011;26213;52.446;20.706;2023-04-24T01:19:40;15.38;;;10.88;;
40511;SDS011;26213;52.446;20.706;2023-04-24T01:22:09;18.73;;;10.57;;
40511;SDS011;26213;52.446;20.706;2023-04-24T01:24:36;14.98;;;10.02;;
40511;SDS011;26213;52.446;20.706;2023-04-24T01:27:02;13.23;;;8.93;;
40511;SDS011;26213;52.446;20.706;2023-04-24T01:29:28;13.50;;;9.98;;
40511;SDS011;26213;52.446;20.706;2023-04-24T01:31:53;13.45;;;9.98;;
40511;SDS011;26213;52.446;20.706;2023-04-24T01:34:20;13.50;;;9.52;;
40511;SDS011;26213;52.446;20.706;2023-04-24T01:36:45;16.38;;;9.93;;
40511;SDS011;26213;52.446;20.706;2023-04-24T01:39:11;19.27;;;10.25;;
40511;SDS011;26213;52.446;20.706;2023-04-24T01:41:37;15.82;;;9.77;;
40511;SDS011;26213;52.446;20.706;2023-04-24T01:44:02;15.50;;;10.02;;
40511;SDS011;26213;52.446;20.706;2023-04-24T01:46:28;15.68;;;10.05;;
40511;SDS011;26213;52.446;20.706;2023-04-24T01:48:55;14.63;;;10.05;;
40511;SDS011;26213;52.446;20.706;2023-04-24T01:51:21;18.52;;;11.10;;
40511;SDS011;26213;52.446;20.706;2023-04-24T01:53:46;15.20;;;10.15;;
40511;SDS011;26213;52.446;20.706;2023-04-24T01:56:12;19.30;;;10.40;;
40511;SDS011;26213;52.446;20.706;2023-04-24T01:58:37;17.15;;;9.77;;
40511;SDS011;26213;52.446;20.706;2023-04-24T02:01:03;16.15;;;10.05;;
40511;SDS011;26213;52.446;20.706;2023-04-24T02:03:28;15.10;;;10.02;;
40511;SDS011;26213;52.446;20.706;2023-04-24T02:05:54;15.82;;;10.38;;
40511;SDS011;26213;52.446;20.706;2023-04-24T02:08:19;14.45;;;9.88;;
40511;SDS011;26213;52.446;20.706;2023-04-24T02:10:44;15.43;;;10.07;;
40511;SDS011;26213;52.446;20.706;2023-04-24T02:13:10;18.65;;;9.43;;
40511;SDS011;26213;52.446;20.706;2023-04-24T02:15:35;15.50;;;9.45;;
40511;SDS011;26213;52.446;20.706;2023-04-24T02:18:01;18.23;;;9.60;;
40511;SDS011;26213;52.446;20.706;2023-04-24T02:20:26;15.98;;;10.13;;
40511;SDS011;26213;52.446;20.706;2023-04-24T02:22:52;14.93;;;9.90;;
40511;SDS011;26213;52.446;20.706;2023-04-24T02:25:17;14.48;;;9.65;;
40511;SDS011;26213;52.446;20.706;2023-04-24T02:27:43;16.80;;;10.13;;
40511;SDS011;26213;52.446;20.706;2023-04-24T02:30:08;18.23;;;10.60;;
40511;SDS011;26213;52.446;20.706;2023-04-24T02:32:34;12.63;;;9.60;;
40511;SDS011;26213;52.446;20.706;2023-04-24T02:34:59;15.35;;;10.20;;
40511;SDS011;26213;52.446;20.706;2023-04-24T02:37:25;15.48;;;10.50;;
40511;SDS011;26213;52.446;20.706;2023-04-24T02:39:50;16.45;;;10.75;;
40511;SDS011;26213;52.446;20.706;2023-04-24T02:42:17;14.82;;;9.68;;
40511;SDS011;26213;52.446;20.706;2023-04-24T02:44:42;14.63;;;9.95;;
40511;SDS011;26213;52.446;20.706;2023-04-24T02:47:08;14.85;;;9.82;;
40511;SDS011;26213;52.446;20.706;2023-04-24T02:49:33;20.55;;;11.80;;
40511;SDS011;26213;52.446;20.706;2023-04-24T02:51:59;20.35;;;12.10;;
40511;SDS011;26213;52.446;20.706;2023-04-24T02:54:24;17.75;;;12.85;;
40511;SDS011;26213;52.446;20.706;2023-04-24T02:56:50;19.13;;;11.43;;
40511;SDS011;26213;52.446;20.706;2023-04-24T02:59:15;22.95;;;12.80;;
40511;SDS011;26213;52.446;20.706;2023-04-24T03:01:40;19.30;;;13.35;;
40511;SDS011;26213;52.446;20.706;2023-04-24T03:04:06;18.25;;;12.93;;
40511;SDS011;26213;52.446;20.706;2023-04-24T03:06:31;21.98;;;13.18;;
40511;SDS011;26213;52.446;20.706;2023-04-24T03:08:57;24.58;;;13.23;;
40511;SDS011;26213;52.446;20.706;2023-04-24T03:11:23;19.23;;;12.75;;
40511;SDS011;26213;52.446;20.706;2023-04-24T03:13:48;20.13;;;13.35;;
40511;SDS011;26213;52.446;20.706;2023-04-24T03:16:14;22.00;;;13.85;;
40511;SDS011;26213;52.446;20.706;2023-04-24T03:18:39;22.05;;;13.18;;
40511;SDS011;26213;52.446;20.706;2023-04-24T03:21:05;22.55;;;13.90;;
40511;SDS011;26213;52.446;20.706;2023-04-24T03:23:30;17.42;;;12.85;;
40511;SDS011;26213;52.446;20.706;2023-04-24T03:25:56;25.08;;;12.65;;
40511;SDS011;26213;52.446;20.706;2023-04-24T03:28:22;18.88;;;12.23;;
40511;SDS011;26213;52.446;20.706;2023-04-24T03:30:47;23.02;;;13.05;;
40511;SDS011;26213;52.446;20.706;2023-04-24T03:33:13;19.58;;;12.35;;
40511;SDS011;26213;52.446;20.706;2023-04-24T03:35:38;23.30;;;12.43;;
40511;SDS011;26213;52.446;20.706;2023-04-24T03:38:04;19.77;;;12.18;;
40511;SDS011;26213;52.446;20.706;2023-04-24T03:40:29;17.85;;;12.27;;
40511;SDS011;26213;52.446;20.706;2023-04-24T03:42:55;19.17;;;12.02;;
40511;SDS011;26213;52.446;20.706;2023-04-24T03:45:20;16.60;;;11.10;;
40511;SDS011;26213;52.446;20.706;2023-04-24T03:47:46;20.13;;;11.45;;
40511;SDS011;26213;52.446;20.706;2023-04-24T03:50:11;17.75;;;12.13;;
40511;SDS011;26213;52.446;20.706;2023-04-24T03:52:37;22.17;;;12.85;;
40511;SDS011;26213;52.446;20.706;2023-04-24T03:55:02;21.00;;;13.25;;
40511;SDS011;26213;52.446;20.706;2023-04-24T03:57:28;19.67;;;13.07;;
40511;SDS011;26213;52.446;20.706;2023-04-24T03:59:53;22.02;;;14.07;;
40511;SDS011;26213;52.446;20.706;2023-04-24T04:02:18;18.20;;;12.23;;
40511;SDS011;26213;52.446;20.706;2023-04-24T04:04:44;19.73;;;12.30;;
40511;SDS011;26213;52.446;20.706;2023-04-24T04:07:09;22.30;;;11.65;;
40511;SDS011;26213;52.446;20.706;2023-04-24T04:09:36;25.25;;;11.70;;
40511;SDS011;26213;52.446;20.706;2023-04-24T04:12:01;19.73;;;12.15;;
40511;SDS011;26213;52.446;20.706;2023-04-24T04:14:27;20.45;;;12.00;;
40511;SDS011;26213;52.446;20.706;2023-04-24T04:16:52;18.67;;;12.40;;
40511;SDS011;26213;52.446;20.706;2023-04-24T04:19:18;19.67;;;11.70;;
40511;SDS011;26213;52.446;20.706;2023-04-24T04:21:43;19.25;;;10.85;;
40511;SDS011;26213;52.446;20.706;2023-04-24T04:24:10;16.90;;;11.17;;
40511;SDS011;26213;52.446;20.706;2023-04-24T04:26:36;23.25;;;12.68;;
40511;SDS011;26213;52.446;20.706;2023-04-24T04:29:03;20.48;;;11.77;;
40511;SDS011;26213;52.446;20.706;2023-04-24T04:31:28;16.85;;;11.80;;
40511;SDS011;26213;52.446;20.706;2023-04-24T04:33:54;18.45;;;12.15;;
40511;SDS011;26213;52.446;20.706;2023-04-24T04:36:19;21.92;;;12.10;;
40511;SDS011;26213;52.446;20.706;2023-04-24T04:38:45;17.95;;;11.40;;
40511;SDS011;26213;52.446;20.706;2023-04-24T04:41:10;15.48;;;11.32;;
40511;SDS011;26213;52.446;20.706;2023-04-24T04:43:36;16.25;;;11.70;;
40511;SDS011;26213;52.446;20.706;2023-04-24T04:46:01;21.58;;;11.77;;
40511;SDS011;26213;52.446;20.706;2023-04-24T04:48:28;17.30;;;12.20;;
40511;SDS011;26213;52.446;20.706;2023-04-24T04:50:56;20.33;;;12.68;;
40511;SDS011;26213;52.446;20.706;2023-04-24T04:53:22;17.50;;;12.35;;
40511;SDS011;26213;52.446;20.706;2023-04-24T04:55:47;22.33;;;12.40;;
40511;SDS011;26213;52.446;20.706;2023-04-24T04:58:13;21.15;;;12.65;;
40511;SDS011;26213;52.446;20.706;2023-04-24T05:00:38;19.10;;;11.85;;
40511;SDS011;26213;52.446;20.706;2023-04-24T05:03:04;20.90;;;12.38;;
40511;SDS011;26213;52.446;20.706;2023-04-24T05:05:30;17.15;;;12.02;;
40511;SDS011;26213;52.446;20.706;2023-04-24T05:07:55;14.32;;;11.27;;
40511;SDS011;26213;52.446;20.706;2023-04-24T05:10:20;19.50;;;11.40;;
40511;SDS011;26213;52.446;20.706;2023-04-24T05:12:46;17.38;;;11.20;;
40511;SDS011;26213;52.446;20.706;2023-04-24T05:15:11;17.38;;;11.35;;
40511;SDS011;26213;52.446;20.706;2023-04-24T05:17:37;17.08;;;11.50;;
40511;SDS011;26213;52.446;20.706;2023-04-24T05:20:03;19.65;;;11.70;;
40511;SDS011;26213;52.446;20.706;2023-04-24T05:22:31;14.25;;;10.27;;
40511;SDS011;26213;52.446;20.706;2023-04-24T05:24:57;21.65;;;12.85;;
40511;SDS011;26213;52.446;20.706;2023-04-24T05:27:23;14.38;;;11.70;;
40511;SDS011;26213;52.446;20.706;2023-04-24T05:29:48;19.65;;;11.73;;
40511;SDS011;26213;52.446;20.706;2023-04-24T05:32:13;22.83;;;11.65;;
40511;SDS011;26213;52.446;20.706;2023-04-24T05:34:39;24.73;;;12.02;;
40511;SDS011;26213;52.446;20.706;2023-04-24T05:37:04;24.33;;;13.00;;
40511;SDS011;26213;52.446;20.706;2023-04-24T05:39:33;23.13;;;12.55;;
40511;SDS011;26213;52.446;20.706;2023-04-24T05:41:59;19.13;;;12.95;;
40511;SDS011;26213;52.446;20.706;2023-04-24T05:44:26;19.85;;;11.90;;
40511;SDS011;26213;52.446;20.706;2023-04-24T05:46:51;23.13;;;12.18;;
40511;SDS011;26213;52.446;20.706;2023-04-24T05:49:17;20.27;;;11.35;;
40511;SDS011;26213;52.446;20.706;2023-04-24T05:51:42;23.08;;;13.15;;
40511;SDS011;26213;52.446;20.706;2023-04-24T05:54:07;21.52;;;12.60;;
40511;SDS011;26213;52.446;20.706;2023-04-24T05:56:33;24.60;;;11.50;;
40511;SDS011;26213;52.446;20.706;2023-04-24T05:58:58;18.95;;;11.63;;
40511;SDS011;26213;52.446;20.706;2023-04-24T06:01:24;14.50;;;10.82;;
40511;SDS011;26213;52.446;20.706;2023-04-24T06:03:50;16.92;;;11.05;;
40511;SDS011;26213;52.446;20.706;2023-04-24T06:06:15;15.70;;;10.75;;
40511;SDS011;26213;52.446;20.706;2023-04-24T06:08:41;14.48;;;10.30;;
40511;SDS011;26213;52.446;20.706;2023-04-24T06:11:07;19.92;;;10.88;;
40511;SDS011;26213;52.446;20.706;2023-04-24T06:13:33;15.98;;;8.75;;
40511;SDS011;26213;52.446;20.706;2023-04-24T06:15:58;15.57;;;10.35;;
40511;SDS011;26213;52.446;20.706;2023-04-24T06:18:24;15.45;;;9.40;;
40511;SDS011;26213;52.446;20.706;2023-04-24T06:20:49;13.63;;;9.05;;
40511;SDS011;26213;52.446;20.706;2023-04-24T06:23:14;15.52;;;9.80;;
40511;SDS011;26213;52.446;20.706;2023-04-24T06:25:40;15.48;;;11.05;;
40511;SDS011;26213;52.446;20.706;2023-04-24T06:28:05;14.55;;;10.15;;
40511;SDS011;26213;52.446;20.706;2023-04-24T06:30:31;16.77;;;8.95;;
40511;SDS011;26213;52.446;20.706;2023-04-24T06:32:56;28.05;;;10.60;;
40511;SDS011;26213;52.446;20.706;2023-04-24T06:35:22;15.45;;;9.57;;
40511;SDS011;26213;52.446;20.706;2023-04-24T06:37:48;15.18;;;9.50;;
40511;SDS011;26213;52.446;20.706;2023-04-24T06:40:13;17.95;;;9.15;;
40511;SDS011;26213;52.446;20.706;2023-04-24T06:42:39;12.65;;;8.48;;
40511;SDS011;26213;52.446;20.706;2023-04-24T06:45:04;20.13;;;9.15;;
40511;SDS011;26213;52.446;20.706;2023-04-24T06:47:30;18.63;;;9.70;;
40511;SDS011;26213;52.446;20.706;2023-04-24T06:49:56;13.73;;;9.30;;
40511;SDS011;26213;52.446;20.706;2023-04-24T06:52:22;24.38;;;9.82;;
40511;SDS011;26213;52.446;20.706;2023-04-24T06:54:47;12.85;;;8.40;;
40511;SDS011;26213;52.446;20.706;2023-04-24T06:57:12;13.85;;;9.82;;
40511;SDS011;26213;52.446;20.706;2023-04-24T06:59:38;17.90;;;8.20;;
40511;SDS011;26213;52.446;20.706;2023-04-24T07:02:04;16.40;;;9.10;;
40511;SDS011;26213;52.446;20.706;2023-04-24T07:04:30;18.25;;;9.40;;
40511;SDS011;26213;52.446;20.706;2023-04-24T07:06:56;15.45;;;8.32;;
40511;SDS011;26213;52.446;20.706;2023-04-24T07:09:23;13.70;;;9.48;;
40511;SDS011;26213;52.446;20.706;2023-04-24T07:11:53;17.98;;;9.05;;
40511;SDS011;26213;52.446;20.706;2023-04-24T07:14:19;17.77;;;8.77;;
40511;SDS011;26213;52.446;20.706;2023-04-24T07:16:45;15.60;;;8.65;;
40511;SDS011;26213;52.446;20.706;2023-04-24T07:19:11;18.45;;;9.15;;
40511;SDS011;26213;52.446;20.706;2023-04-24T07:21:38;14.63;;;8.60;;
40511;SDS011;26213;52.446;20.706;2023-04-24T07:24:03;14.95;;;8.60;;
40511;SDS011;26213;52.446;20.706;2023-04-24T07:26:29;16.77;;;8.55;;
40511;SDS011;26213;52.446;20.706;2023-04-24T07:28:55;13.40;;;7.90;;
40511;SDS011;26213;52.446;20.706;2023-04-24T07:31:21;18.15;;;8.10;;
40511;SDS011;26213;52.446;20.706;2023-04-24T07:33:47;18.15;;;9.18;;
40511;SDS011;26213;52.446;20.706;2023-04-24T07:36:13;14.70;;;8.05;;
40511;SDS011;26213;52.446;20.706;2023-04-24T07:38:43;12.05;;;8.30;;
40511;SDS011;26213;52.446;20.706;2023-04-24T07:41:09;20.50;;;8.07;;
40511;SDS011;26213;52.446;20.706;2023-04-24T07:43:35;13.70;;;7.35;;
40511;SDS011;26213;52.446;20.706;2023-04-24T07:46:01;14.38;;;8.15;;
40511;SDS011;26213;52.446;20.706;2023-04-24T07:48:27;13.48;;;8.05;;
40511;SDS011;26213;52.446;20.706;2023-04-24T07:50:53;16.98;;;7.82;;
40511;SDS011;26213;52.446;20.706;2023-04-24T07:53:18;12.25;;;7.57;;
40511;SDS011;26213;52.446;20.706;2023-04-24T07:55:44;12.48;;;7.15;;
40511;SDS011;26213;52.446;20.706;2023-04-24T07:58:10;13.13;;;7.00;;
40511;SDS011;26213;52.446;20.706;2023-04-24T08:00:36;13.63;;;7.60;;
40511;SDS011;26213;52.446;20.706;2023-04-24T08:03:01;15.77;;;6.85;;
40511;SDS011;26213;52.446;20.706;2023-04-24T08:05:27;13.27;;;7.15;;
40511;SDS011;26213;52.446;20.706;2023-04-24T08:07:53;11.45;;;7.00;;
40511;SDS011;26213;52.446;20.706;2023-04-24T08:10:20;11.43;;;7.03;;
40511;SDS011;26213;52.446;20.706;2023-04-24T08:12:46;13.68;;;7.88;;
40511;SDS011;26213;52.446;20.706;2023-04-24T08:15:12;12.07;;;7.75;;
40511;SDS011;26213;52.446;20.706;2023-04-24T08:17:37;16.80;;;8.43;;
40511;SDS011;26213;52.446;20.706;2023-04-24T08:20:03;16.95;;;6.70;;
40511;SDS011;26213;52.446;20.706;2023-04-24T08:22:30;12.05;;;7.40;;
40511;SDS011;26213;52.446;20.706;2023-04-24T08:24:56;12.90;;;7.35;;
40511;SDS011;26213;52.446;20.706;2023-04-24T08:27:22;11.95;;;7.47;;
40511;SDS011;26213;52.446;20.706;2023-04-24T08:29:48;13.07;;;7.05;;
40511;SDS011;26213;52.446;20.706;2023-04-24T08:32:14;11.27;;;7.03;;
40511;SDS011;26213;52.446;20.706;2023-04-24T08:34:39;14.65;;;7.70;;
40511;SDS011;26213;52.446;20.706;2023-04-24T08:37:05;10.38;;;7.18;;
40511;SDS011;26213;52.446;20.706;2023-04-24T08:39:30;9.82;;;6.47;;
40511;SDS011;26213;52.446;20.706;2023-04-24T08:41:56;11.90;;;6.75;;
40511;SDS011;26213;52.446;20.706;2023-04-24T08:44:21;9.93;;;6.55;;
40511;SDS011;26213;52.446;20.706;2023-04-24T08:46:47;15.00;;;7.43;;
40511;SDS011;26213;52.446;20.706;2023-04-24T08:49:14;17.30;;;7.82;;
40511;SDS011;26213;52.446;20.706;2023-04-24T08:54:07;22.98;;;8.55;;
40511;SDS011;26213;52.446;20.706;2023-04-24T08:56:33;12.55;;;7.38;;
40511;SDS011;26213;52.446;20.706;2023-04-24T08:58:59;12.32;;;7.15;;
40511;SDS011;26213;52.446;20.706;2023-04-24T09:01:25;13.13;;;6.90;;
40511;SDS011;26213;52.446;20.706;2023-04-24T09:03:51;9.02;;;6.05;;
40511;SDS011;26213;52.446;20.706;2023-04-24T09:06:18;9.93;;;6.25;;
40511;SDS011;26213;52.446;20.706;2023-04-24T09:08:45;12.55;;;7.28;;
40511;SDS011;26213;52.446;20.706;2023-04-24T09:11:10;12.02;;;6.18;;
40511;SDS011;26213;52.446;20.706;2023-04-24T09:13:36;11.50;;;6.38;;
40511;SDS011;26213;52.446;20.706;2023-04-24T09:16:01;10.88;;;6.05;;
40511;SDS011;26213;52.446;20.706;2023-04-24T09:18:27;8.13;;;5.53;;
40511;SDS011;26213;52.446;20.706;2023-04-24T09:21:02;10.05;;;6.07;;
40511;SDS011;26213;52.446;20.706;2023-04-24T09:23:29;10.38;;;5.93;;
40511;SDS011;26213;52.446;20.706;2023-04-24T09:25:56;10.75;;;6.03;;
40511;SDS011;26213;52.446;20.706;2023-04-24T09:28:25;9.05;;;5.18;;
40511;SDS011;26213;52.446;20.706;2023-04-24T09:31:04;8.15;;;5.90;;
40511;SDS011;26213;52.446;20.706;2023-04-24T09:33:31;6.55;;;5.20;;
40511;SDS011;26213;52.446;20.706;2023-04-24T09:35:56;8.05;;;4.93;;
40511;SDS011;26213;52.446;20.706;2023-04-24T09:38:30;9.75;;;4.97;;
40511;SDS011;26213;52.446;20.706;2023-04-24T09:41:04;10.30;;;5.00;;
40511;SDS011;26213;52.446;20.706;2023-04-24T09:43:32;9.40;;;5.60;;
40511;SDS011;26213;52.446;20.706;2023-04-24T09:45:58;12.88;;;6.03;;
40511;SDS011;26213;52.446;20.706;2023-04-24T09:48:31;8.73;;;5.50;;
40511;SDS011;26213;52.446;20.706;2023-04-24T09:50:57;7.55;;;5.85;;
40511;SDS011;26213;52.446;20.706;2023-04-24T09:53:26;8.93;;;5.47;;
40511;SDS011;26213;52.446;20.706;2023-04-24T09:55:52;9.35;;;5.05;;
40511;SDS011;26213;52.446;20.706;2023-04-24T09:58:18;18.48;;;6.13;;
40511;SDS011;26213;52.446;20.706;2023-04-24T10:00:54;10.00;;;4.88;;
40511;SDS011;26213;52.446;20.706;2023-04-24T10:03:20;6.53;;;5.40;;
40511;SDS011;26213;52.446;20.706;2023-04-24T10:05:46;11.50;;;5.68;;
40511;SDS011;26213;52.446;20.706;2023-04-24T10:08:12;8.38;;;5.00;;
40511;SDS011;26213;52.446;20.706;2023-04-24T10:10:39;10.65;;;5.82;;
40511;SDS011;26213;52.446;20.706;2023-04-24T10:15:32;8.43;;;5.82;;
40511;SDS011;26213;52.446;20.706;2023-04-24T10:17:58;12.10;;;5.22;;
40511;SDS011;26213;52.446;20.706;2023-04-24T10:20:25;8.80;;;4.75;;
40511;SDS011;26213;52.446;20.706;2023-04-24T10:22:52;10.77;;;4.93;;
40511;SDS011;26213;52.446;20.706;2023-04-24T10:25:22;14.82;;;6.05;;
40511;SDS011;26213;52.446;20.706;2023-04-24T10:27:49;9.02;;;5.47;;
40511;SDS011;26213;52.446;20.706;2023-04-24T10:30:15;10.50;;;5.53;;
40511;SDS011;26213;52.446;20.706;2023-04-24T10:32:41;12.57;;;7.50;;
40511;SDS011;26213;52.446;20.706;2023-04-24T10:35:07;14.38;;;6.82;;
40511;SDS011;26213;52.446;20.706;2023-04-24T10:37:40;7.50;;;5.57;;
40511;SDS011;26213;52.446;20.706;2023-04-24T10:40:09;9.70;;;5.63;;
40511;SDS011;26213;52.446;20.706;2023-04-24T10:42:36;11.38;;;5.50;;
40511;SDS011;26213;52.446;20.706;2023-04-24T10:45:06;10.25;;;5.47;;
40511;SDS011;26213;52.446;20.706;2023-04-24T10:47:40;12.30;;;5.55;;
40511;SDS011;26213;52.446;20.706;2023-04-24T10:50:09;10.95;;;5.72;;
40511;SDS011;26213;52.446;20.706;2023-04-24T10:52:48;10.88;;;5.60;;
40511;SDS011;26213;52.446;20.706;2023-04-24T10:55:16;9.30;;;5.90;;
40511;SDS011;26213;52.446;20.706;2023-04-24T10:58:01;8.65;;;6.00;;
40511;SDS011;26213;52.446;20.706;2023-04-24T11:00:28;9.23;;;5.70;;
40511;SDS011;26213;52.446;20.706;2023-04-24T11:02:54;8.65;;;5.45;;
40511;SDS011;26213;52.446;20.706;2023-04-24T11:05:22;9.77;;;6.20;;
40511;SDS011;26213;52.446;20.706;2023-04-24T11:13:09;10.75;;;5.97;;
40511;SDS011;26213;52.446;20.706;2023-04-24T11:15:35;12.82;;;5.40;;
40511;SDS011;26213;52.446;20.706;2023-04-24T11:18:00;12.55;;;5.63;;
40511;SDS011;26213;52.446;20.706;2023-04-24T11:20:26;9.32;;;4.78;;
40511;SDS011;26213;52.446;20.706;2023-04-24T11:22:52;9.95;;;5.32;;
40511;SDS011;26213;52.446;20.706;2023-04-24T11:25:19;9.27;;;5.30;;
40511;SDS011;26213;52.446;20.706;2023-04-24T11:27:47;9.90;;;4.82;;
40511;SDS011;26213;52.446;20.706;2023-04-24T11:30:17;10.48;;;5.20;;
40511;SDS011;26213;52.446;20.706;2023-04-24T11:32:43;15.95;;;5.40;;
40511;SDS011;26213;52.446;20.706;2023-04-24T11:37:47;11.20;;;5.38;;
40511;SDS011;26213;52.446;20.706;2023-04-24T11:40:14;9.05;;;5.35;;
40511;SDS011;26213;52.446;20.706;2023-04-24T11:42:42;9.95;;;5.65;;
40511;SDS011;26213;52.446;20.706;2023-04-24T11:47:35;13.07;;;5.28;;
40511;SDS011;26213;52.446;20.706;2023-04-24T11:50:02;12.05;;;4.20;;
40511;SDS011;26213;52.446;20.706;2023-04-24T11:52:29;9.00;;;4.65;;
40511;SDS011;26213;52.446;20.706;2023-04-24T11:54:54;7.85;;;4.00;;
40511;SDS011;26213;52.446;20.706;2023-04-24T11:57:21;9.55;;;4.25;;
40511;SDS011;26213;52.446;20.706;2023-04-24T11:59:47;9.25;;;4.22;;
40511;SDS011;26213;52.446;20.706;2023-04-24T12:02:20;7.07;;;3.90;;
40511;SDS011;26213;52.446;20.706;2023-04-24T12:04:46;5.78;;;3.50;;
40511;SDS011;26213;52.446;20.706;2023-04-24T12:07:12;6.85;;;4.30;;
40511;SDS011;26213;52.446;20.706;2023-04-24T12:09:56;8.95;;;3.80;;
40511;SDS011;26213;52.446;20.706;2023-04-24T12:12:24;6.65;;;4.00;;
40511;SDS011;26213;52.446;20.706;2023-04-24T12:14:55;8.23;;;4.65;;
40511;SDS011;26213;52.446;20.706;2023-04-24T12:17:25;7.63;;;4.70;;
40511;SDS011;26213;52.446;20.706;2023-04-24T12:19:58;8.00;;;4.50;;
40511;SDS011;26213;52.446;20.706;2023-04-24T12:22:43;7.40;;;4.40;;
40511;SDS011;26213;52.446;20.706;2023-04-24T12:25:27;6.60;;;4.40;;
40511;SDS011;26213;52.446;20.706;2023-04-24T12:27:55;8.90;;;4.93;;
40511;SDS011;26213;52.446;20.706;2023-04-24T12:30:48;11.10;;;4.85;;
40511;SDS011;26213;52.446;20.706;2023-04-24T12:33:17;6.75;;;4.20;;
40511;SDS011;26213;52.446;20.706;2023-04-24T12:35:43;9.73;;;4.72;;
40511;SDS011;26213;52.446;20.706;2023-04-24T12:38:10;8.45;;;5.03;;
40511;SDS011;26213;52.446;20.706;2023-04-24T12:40:37;7.15;;;4.43;;
40511;SDS011;26213;52.446;20.706;2023-04-24T12:43:12;6.88;;;3.90;;
40511;SDS011;26213;52.446;20.706;2023-04-24T12:45:41;9.07;;;4.72;;
40511;SDS011;26213;52.446;20.706;2023-04-24T12:48:07;8.60;;;5.20;;
40511;SDS011;26213;52.446;20.706;2023-04-24T12:50:32;9.50;;;5.60;;
40511;SDS011;26213;52.446;20.706;2023-04-24T12:52:57;6.50;;;4.32;;
40511;SDS011;26213;52.446;20.706;2023-04-24T12:55:23;14.38;;;5.30;;
40511;SDS011;26213;52.446;20.706;2023-04-24T12:57:48;9.48;;;4.60;;
40511;SDS011;26213;52.446;20.706;2023-04-24T13:00:14;7.80;;;4.80;;
40511;SDS011;26213;52.446;20.706;2023-04-24T13:02:40;9.80;;;5.30;;
40511;SDS011;26213;52.446;20.706;2023-04-24T13:05:05;7.05;;;4.55;;
40511;SDS011;26213;52.446;20.706;2023-04-24T13:07:31;6.88;;;4.38;;
40511;SDS011;26213;52.446;20.706;2023-04-24T13:09:56;6.22;;;4.22;;
40511;SDS011;26213;52.446;20.706;2023-04-24T13:12:22;6.28;;;4.28;;
40511;SDS011;26213;52.446;20.706;2023-04-24T13:14:51;9.85;;;5.55;;
40511;SDS011;26213;52.446;20.706;2023-04-24T13:17:17;6.70;;;4.47;;
40511;SDS011;26213;52.446;20.706;2023-04-24T13:19:42;5.97;;;4.82;;
40511;SDS011;26213;52.446;20.706;2023-04-24T13:22:09;6.47;;;4.15;;
40511;SDS011;26213;52.446;20.706;2023-04-24T13:24:35;12.97;;;4.90;;
40511;SDS011;26213;52.446;20.706;2023-04-24T13:27:02;11.53;;;4.33;;
40511;SDS011;26213;52.446;20.706;2023-04-24T13:29:28;17.63;;;3.95;;
40511;SDS011;26213;52.446;20.706;2023-04-24T13:31:53;8.05;;;3.78;;
40511;SDS011;26213;52.446;20.706;2023-04-24T13:34:20;7.57;;;3.13;;
40511;SDS011;26213;52.446;20.706;2023-04-24T13:36:46;10.30;;;4.15;;
40511;SDS011;26213;52.446;20.706;2023-04-24T13:39:11;5.10;;;3.35;;
40511;SDS011;26213;52.446;20.706;2023-04-24T13:41:37;7.90;;;3.35;;
40511;SDS011;26213;52.446;20.706;2023-04-24T13:44:03;8.43;;;4.13;;
40511;SDS011;26213;52.446;20.706;2023-04-24T13:46:29;7.97;;;4.45;;
40511;SDS011;26213;52.446;20.706;2023-04-24T13:48:55;8.57;;;3.42;;
40511;SDS011;26213;52.446;20.706;2023-04-24T13:51:23;7.28;;;4.25;;
40511;SDS011;26213;52.446;20.706;2023-04-24T13:53:51;8.80;;;3.83;;
40511;SDS011;26213;52.446;20.706;2023-04-24T13:56:17;6.00;;;3.50;;
40511;SDS011;26213;52.446;20.706;2023-04-24T13:58:42;17.23;;;3.80;;
40511;SDS011;26213;52.446;20.706;2023-04-24T14:01:08;8.77;;;3.35;;
40511;SDS011;26213;52.446;20.706;2023-04-24T14:03:33;8.93;;;3.78;;
40511;SDS011;26213;52.446;20.706;2023-04-24T14:05:59;6.47;;;3.20;;
40511;SDS011;26213;52.446;20.706;2023-04-24T14:08:24;7.82;;;3.38;;
40511;SDS011;26213;52.446;20.706;2023-04-24T14:10:50;5.25;;;3.38;;
40511;SDS011;26213;52.446;20.706;2023-04-24T14:13:16;7.32;;;2.92;;
40511;SDS011;26213;52.446;20.706;2023-04-24T14:15:41;5.35;;;3.45;;
40511;SDS011;26213;52.446;20.706;2023-04-24T14:18:07;6.07;;;3.63;;
40511;SDS011;26213;52.446;20.706;2023-04-24T14:20:32;5.72;;;3.40;;
40511;SDS011;26213;52.446;20.706;2023-04-24T14:22:57;3.78;;;3.03;;
40511;SDS011;26213;52.446;20.706;2023-04-24T14:25:24;4.97;;;3.28;;
40511;SDS011;26213;52.446;20.706;2023-04-24T14:27:50;7.68;;;3.63;;
40511;SDS011;26213;52.446;20.706;2023-04-24T14:30:16;7.05;;;3.60;;
40511;SDS011;26213;52.446;20.706;2023-04-24T14:32:42;7.90;;;4.07;;